Caledonia, Michigan
Current Conditions -  °F | °C
As of 5:16 AM on Thursday 23 Oct 2014 (Local Time) from KGRR Reporting Station
Moderate Fog Moderate Fog  
Wind Chill: 30°   Ceiling: 100
Heat Index: 30°   Visibility: 0.25mi
Dew Point: 28°   Wind: 3mph
Humidity: 92%   Direction: 130°SE
Pressure: 30.25"   Gusts: NA
Location:  42.79°N, 85.52°W
Report Text: KGRR 230916Z AUTO 13003KT 1/4SM R26L/1200VP6000FT FZFG VV001 M01/M02 A3025 RMK AO2 T10111022
Loading
Personal Weather Stations






























Interactive Weather Map
Tropical Storm Tracking
New forecast layout! Learn more

10-Day Weather Forecast

Advertisements
Track Severe Weather on mobile